createdAt,value
2022-08-12T00:01:18.948Z,20.16
2022-08-12T00:04:32.422Z,20.12
2022-08-12T00:07:19.055Z,20.09
2022-08-12T00:10:04.270Z,20.09
2022-08-12T00:12:49.891Z,20.04
2022-08-12T00:15:36.926Z,20.03
2022-08-12T00:18:30.094Z,20.01
2022-08-12T00:21:15.214Z,19.98
2022-08-12T00:27:49.910Z,19.91
2022-08-12T00:30:37.144Z,19.90
2022-08-12T00:33:28.902Z,19.83
2022-08-12T00:37:03.943Z,19.81
2022-08-12T00:40:14.154Z,19.75
2022-08-12T00:42:51.436Z,19.73
2022-08-12T00:45:18.856Z,19.69
2022-08-12T00:48:11.202Z,19.66
2022-08-12T00:50:40.772Z,19.63
2022-08-12T00:53:21.009Z,19.56
2022-08-12T00:55:47.942Z,19.50
2022-08-12T00:58:17.274Z,19.42
2022-08-12T01:00:44.940Z,19.40
2022-08-12T01:03:15.663Z,19.36
2022-08-12T01:06:03.708Z,19.31
2022-08-12T01:12:21.461Z,19.20
2022-08-12T01:14:53.341Z,19.17
2022-08-12T01:17:44.403Z,19.14
2022-08-12T01:20:20.110Z,19.12
2022-08-12T01:23:07.082Z,19.12
2022-08-12T01:25:55.572Z,19.08
2022-08-12T01:28:27.668Z,19.07
2022-08-12T01:30:57.016Z,19.03
2022-08-12T01:33:34.941Z,19.00
2022-08-12T01:36:08.728Z,19.00
2022-08-12T01:38:49.739Z,18.97
2022-08-12T01:41:18.148Z,18.93
2022-08-12T01:43:45.625Z,18.89
2022-08-12T01:46:48.066Z,18.87
2022-08-12T01:49:50.481Z,18.80
2022-08-12T01:52:48.762Z,18.76
2022-08-12T01:55:21.672Z,18.74
2022-08-12T01:58:13.797Z,18.68
2022-08-12T02:01:03.846Z,18.64
2022-08-12T02:04:13.559Z,18.58
2022-08-12T02:07:19.429Z,18.54
2022-08-12T02:10:50.843Z,18.50
2022-08-12T02:13:43.702Z,18.48
2022-08-12T02:16:53.884Z,18.44
2022-08-12T02:19:49.520Z,18.40
2022-08-12T02:22:39.328Z,18.34
2022-08-12T02:25:23.061Z,18.27
2022-08-12T02:27:56.173Z,18.22
2022-08-12T02:30:26.421Z,18.19
2022-08-12T02:33:11.788Z,18.15
2022-08-12T02:35:39.773Z,18.13
2022-08-12T02:38:26.362Z,18.08
2022-08-12T02:41:04.121Z,18.04
2022-08-12T02:43:59.069Z,18.04
2022-08-12T02:46:32.309Z,18.00
2022-08-12T02:49:56.559Z,17.95
2022-08-12T02:52:24.214Z,17.90
2022-08-12T02:55:33.935Z,17.87
2022-08-12T02:58:12.428Z,17.86
2022-08-12T03:00:42.299Z,17.87
2022-08-12T03:03:13.192Z,17.85
2022-08-12T03:05:59.722Z,17.84
2022-08-12T03:08:47.040Z,17.81
2022-08-12T03:11:37.740Z,17.76
2022-08-12T03:14:14.040Z,17.73
2022-08-12T03:17:13.646Z,17.71
2022-08-12T03:20:10.247Z,17.71
2022-08-12T03:22:40.759Z,17.71
2022-08-12T03:25:31.726Z,17.68
2022-08-12T03:28:10.119Z,17.63
2022-08-12T03:31:19.569Z,17.60
2022-08-12T03:34:00.617Z,17.58
2022-08-12T03:36:39.084Z,17.55
2022-08-12T03:39:18.970Z,17.51
2022-08-12T03:41:59.298Z,17.49
2022-08-12T03:48:39.460Z,17.43
2022-08-12T03:51:25.135Z,17.39
2022-08-12T03:54:11.741Z,17.37
2022-08-12T03:56:57.995Z,17.33
2022-08-12T03:59:43.040Z,17.28
2022-08-12T04:02:16.850Z,17.25
2022-08-12T04:04:45.461Z,17.23
2022-08-12T04:07:34.159Z,17.21
2022-08-12T04:10:01.488Z,17.24
2022-08-12T04:12:46.531Z,17.22
2022-08-12T04:15:14.720Z,17.20
2022-08-12T04:18:06.876Z,17.15
2022-08-12T04:20:55.021Z,17.14
2022-08-12T04:23:59.782Z,17.10
2022-08-12T04:26:27.377Z,17.07
2022-08-12T04:28:56.609Z,17.08
2022-08-12T04:31:56.034Z,17.08
2022-08-12T04:34:59.712Z,17.06
2022-08-12T04:37:59.335Z,17.02
2022-08-12T04:40:30.110Z,17.03
2022-08-12T04:43:03.691Z,17.03
2022-08-12T04:45:43.722Z,17.01
2022-08-12T04:48:17.275Z,16.98
2022-08-12T04:50:53.437Z,17.02
2022-08-12T04:53:19.992Z,17.06
2022-08-12T04:55:47.875Z,17.07
2022-08-12T04:58:34.263Z,17.05
2022-08-12T05:01:01.204Z,17.02
2022-08-12T05:03:47.123Z,17.05
2022-08-12T05:06:20.806Z,17.10
2022-08-12T05:08:55.907Z,17.17
2022-08-12T05:11:27.291Z,17.21
2022-08-12T05:14:07.208Z,17.26
2022-08-12T05:16:50.802Z,17.33
2022-08-12T05:19:22.602Z,17.38
2022-08-12T05:21:54.406Z,17.44
2022-08-12T05:24:20.828Z,17.48
2022-08-12T05:26:48.272Z,17.54
2022-08-12T05:30:07.126Z,17.58
2022-08-12T05:32:39.026Z,17.65
2022-08-12T05:35:09.014Z,17.67
2022-08-12T05:37:35.684Z,17.73
2022-08-12T05:40:10.060Z,17.76
2022-08-12T05:42:37.858Z,17.83
2022-08-12T05:45:11.469Z,17.90
2022-08-12T05:47:52.973Z,17.93
2022-08-12T05:50:20.644Z,17.97
2022-08-12T05:53:03.994Z,18.07
2022-08-12T05:55:31.643Z,18.14
2022-08-12T05:57:58.353Z,18.19
2022-08-12T06:00:25.973Z,18.25
2022-08-12T06:03:57.920Z,18.33
2022-08-12T06:06:53.431Z,18.43
2022-08-12T06:09:23.228Z,18.49
2022-08-12T06:12:05.186Z,18.57
2022-08-12T06:14:35.142Z,18.63
2022-08-12T06:17:04.067Z,18.67
2022-08-12T06:20:28.138Z,18.68
2022-08-12T06:22:35.433Z,18.74
2022-08-12T06:25:02.945Z,18.80
2022-08-12T06:27:29.326Z,18.81
2022-08-12T06:30:27.672Z,18.85
2022-08-12T06:33:11.661Z,18.92
2022-08-12T06:35:50.192Z,18.95
2022-08-12T06:38:27.619Z,19.02
2022-08-12T06:41:18.258Z,19.10
2022-08-12T06:44:07.016Z,19.16
2022-08-12T06:46:33.226Z,19.22
2022-08-12T06:49:01.667Z,19.26
2022-08-12T06:51:31.024Z,19.30
2022-08-12T06:53:59.028Z,19.36
2022-08-12T06:56:46.076Z,19.43
2022-08-12T06:59:14.100Z,19.52
2022-08-12T07:01:40.749Z,19.53
2022-08-12T07:04:35.831Z,19.59
2022-08-12T07:07:05.450Z,19.68
2022-08-12T07:10:04.156Z,19.74
2022-08-12T07:12:22.085Z,19.86
2022-08-12T07:15:02.458Z,19.96
2022-08-12T07:17:37.563Z,20.03
2022-08-12T07:20:09.878Z,20.13
2022-08-12T07:22:37.511Z,20.20
2022-08-12T07:25:22.585Z,20.30
2022-08-12T07:27:53.820Z,20.38
2022-08-12T07:30:23.256Z,20.46
2022-08-12T07:33:34.453Z,20.56
2022-08-12T07:36:02.362Z,20.67
2022-08-12T07:38:36.224Z,20.78
2022-08-12T07:41:15.604Z,20.87
2022-08-12T07:44:03.877Z,20.99
2022-08-12T07:47:22.708Z,21.05
2022-08-12T07:50:09.101Z,21.21
2022-08-12T07:52:39.632Z,21.31
2022-08-12T07:55:19.321Z,21.39
2022-08-12T07:58:04.140Z,21.45
2022-08-12T08:00:34.195Z,21.54
2022-08-12T08:03:08.655Z,21.62
2022-08-12T08:05:39.841Z,21.69
2022-08-12T08:08:17.208Z,21.75
2022-08-12T08:10:44.629Z,21.85
2022-08-12T08:13:12.513Z,21.97
2022-08-12T08:16:02.313Z,22.05
2022-08-12T08:18:37.393Z,22.17
2022-08-12T08:21:08.948Z,22.23
2022-08-12T08:23:56.422Z,22.35
2022-08-12T08:26:26.615Z,22.45
2022-08-12T08:28:53.058Z,22.54
2022-08-12T08:31:19.564Z,22.61
2022-08-12T08:34:04.249Z,22.72
2022-08-12T08:36:32.337Z,22.87
2022-08-12T08:38:59.030Z,22.97
2022-08-12T08:42:14.033Z,23.10
2022-08-12T08:44:39.423Z,23.25
2022-08-12T08:47:06.972Z,23.35
2022-08-12T08:49:37.117Z,23.44
2022-08-12T08:52:09.200Z,23.57
2022-08-12T08:54:37.561Z,23.67
2022-08-12T08:57:05.684Z,23.81
2022-08-12T08:59:32.317Z,23.92
2022-08-12T09:01:58.940Z,24.03
2022-08-12T09:05:14.487Z,24.12
2022-08-12T09:07:17.948Z,24.31
2022-08-12T09:10:03.312Z,24.44
2022-08-12T09:12:54.369Z,24.54
2022-08-12T09:15:35.808Z,24.65
2022-08-12T09:20:52.084Z,24.88
2022-08-12T09:26:08.104Z,25.09
2022-08-12T09:28:37.112Z,25.22
2022-08-12T09:32:03.474Z,25.32
2022-08-12T09:34:29.836Z,25.46
2022-08-12T09:36:58.555Z,25.57
2022-08-12T09:40:06.323Z,25.70
2022-08-12T09:42:38.803Z,25.76
2022-08-12T09:46:11.391Z,25.92
2022-08-12T09:48:20.084Z,25.98
2022-08-12T09:50:51.864Z,26.08
2022-08-12T09:53:29.377Z,26.19
2022-08-12T09:56:58.901Z,26.29
2022-08-12T09:59:00.145Z,26.31
2022-08-12T10:01:35.128Z,26.38
2022-08-12T10:04:19.047Z,26.52
2022-08-12T10:06:54.703Z,26.69
2022-08-12T10:09:28.599Z,26.78
2022-08-12T10:12:41.868Z,26.79
2022-08-12T10:15:15.333Z,26.82
2022-08-12T10:18:07.296Z,26.90
2022-08-12T10:20:34.102Z,26.96
2022-08-12T10:23:01.590Z,27.05
2022-08-12T10:26:18.478Z,27.12
2022-08-12T10:29:02.606Z,27.18
2022-08-12T10:32:19.594Z,27.23
2022-08-12T10:34:23.756Z,27.34
2022-08-12T10:36:58.612Z,27.43
2022-08-12T10:40:05.629Z,27.52
2022-08-12T10:42:38.369Z,27.59
2022-08-12T10:45:07.358Z,27.68
2022-08-12T10:48:07.732Z,27.76
2022-08-12T10:50:33.519Z,27.81
2022-08-12T10:53:10.957Z,27.91
2022-08-12T10:55:45.801Z,27.97
2022-08-12T10:58:28.007Z,28.06
2022-08-12T11:01:49.420Z,28.16
2022-08-12T11:04:25.216Z,28.20
2022-08-12T11:07:07.719Z,28.22
2022-08-12T11:09:55.855Z,28.28
2022-08-12T11:12:55.347Z,28.35
2022-08-12T11:15:14.796Z,28.44
2022-08-12T11:17:54.039Z,28.49
2022-08-12T11:20:30.546Z,28.56
2022-08-12T11:22:59.982Z,28.51
2022-08-12T11:25:56.798Z,28.50
2022-08-12T11:28:34.562Z,28.54
2022-08-12T11:31:04.688Z,28.64
2022-08-12T11:34:05.476Z,28.70
2022-08-12T11:36:21.777Z,28.76
2022-08-12T11:38:50.357Z,28.86
2022-08-12T11:41:28.113Z,28.87
2022-08-12T11:43:59.080Z,28.87
2022-08-12T11:46:25.921Z,28.87
2022-08-12T11:48:52.872Z,28.85
2022-08-12T11:51:20.774Z,28.89
2022-08-12T11:53:56.456Z,28.93
2022-08-12T11:56:38.748Z,28.96
2022-08-12T12:02:01.464Z,29.08
2022-08-12T12:04:31.391Z,29.21
2022-08-12T12:07:07.447Z,29.25
2022-08-12T12:09:52.702Z,29.26
2022-08-12T12:12:21.368Z,29.28
2022-08-12T12:14:54.765Z,29.29
2022-08-12T12:17:25.993Z,29.29
2022-08-12T12:19:54.065Z,29.33
2022-08-12T12:22:23.603Z,29.38
2022-08-12T12:24:58.353Z,29.48
2022-08-12T12:27:47.240Z,29.51
2022-08-12T12:30:19.725Z,29.54
2022-08-12T12:32:55.806Z,29.60
2022-08-12T12:36:06.459Z,29.62
2022-08-12T12:38:12.016Z,29.65
2022-08-12T12:40:41.510Z,29.67
2022-08-12T12:43:11.237Z,29.72
2022-08-12T12:45:39.396Z,29.70
2022-08-12T12:48:12.069Z,29.80
2022-08-12T12:51:14.305Z,29.90
2022-08-12T12:54:07.771Z,29.91
2022-08-12T12:56:40.369Z,29.91
2022-08-12T12:59:55.229Z,29.92
2022-08-12T13:01:56.029Z,29.94
2022-08-12T13:04:24.641Z,29.93
2022-08-12T13:06:52.245Z,29.97
2022-08-12T13:09:22.166Z,30.06
2022-08-12T13:11:53.122Z,30.11
2022-08-12T13:14:28.173Z,30.16
2022-08-12T13:17:01.335Z,30.12
2022-08-12T13:19:37.437Z,30.12
2022-08-12T13:22:19.920Z,30.13
2022-08-12T13:24:55.557Z,30.15
2022-08-12T13:27:36.305Z,30.21
2022-08-12T13:30:12.474Z,30.26
2022-08-12T13:32:56.901Z,30.33
2022-08-12T13:35:33.653Z,30.37
2022-08-12T13:38:13.151Z,30.41
2022-08-12T13:40:40.459Z,30.46
2022-08-12T13:43:07.086Z,30.52
2022-08-12T13:45:34.612Z,30.52
2022-08-12T13:48:03.512Z,30.55
2022-08-12T13:50:38.140Z,30.59
2022-08-12T13:53:24.240Z,30.62
2022-08-12T13:55:59.710Z,30.62
2022-08-12T13:58:30.119Z,30.59
2022-08-12T14:00:58.126Z,30.58
2022-08-12T14:03:28.393Z,30.58
2022-08-12T14:06:15.606Z,30.57
2022-08-12T14:08:42.860Z,30.58
2022-08-12T14:11:09.481Z,30.58
2022-08-12T14:14:03.305Z,30.56
2022-08-12T14:16:48.598Z,30.56
2022-08-12T14:19:21.951Z,30.58
2022-08-12T14:22:01.112Z,30.56
2022-08-12T14:24:35.137Z,30.54
2022-08-12T14:27:02.779Z,30.52
2022-08-12T14:29:56.103Z,30.51
2022-08-12T14:32:17.996Z,30.51
2022-08-12T14:34:47.119Z,30.54
2022-08-12T14:37:57.323Z,30.50
2022-08-12T14:40:00.521Z,30.49
2022-08-12T14:42:27.923Z,30.49
2022-08-12T14:45:01.199Z,30.43
2022-08-12T14:47:29.271Z,30.32
2022-08-12T14:50:41.211Z,30.28
2022-08-12T14:54:49.891Z,30.25
2022-08-12T14:58:37.659Z,30.23
2022-08-12T15:01:37.377Z,30.23
2022-08-12T15:04:04.008Z,30.23
2022-08-12T15:06:44.120Z,30.22
2022-08-12T15:09:18.290Z,30.24
2022-08-12T15:12:03.224Z,30.21
2022-08-12T15:14:42.906Z,30.17
2022-08-12T15:17:12.225Z,30.15
2022-08-12T15:20:30.959Z,30.09
2022-08-12T15:22:56.584Z,30.09
2022-08-12T15:25:24.632Z,30.09
2022-08-12T15:28:04.005Z,30.06
2022-08-12T15:30:33.791Z,30.02
2022-08-12T15:33:00.394Z,29.98
2022-08-12T15:35:50.205Z,29.94
2022-08-12T15:38:25.085Z,29.89
2022-08-12T15:41:01.031Z,29.89
2022-08-12T15:44:15.601Z,29.86
2022-08-12T15:46:16.620Z,29.81
2022-08-12T15:48:47.744Z,29.82
2022-08-12T15:51:59.012Z,29.79
2022-08-12T15:54:33.612Z,29.74
2022-08-12T15:57:05.437Z,29.72
2022-08-12T15:59:32.701Z,29.89
2022-08-12T16:02:19.285Z,30.00
2022-08-12T16:04:50.281Z,29.99
2022-08-12T16:07:30.270Z,29.87
2022-08-12T16:10:08.423Z,29.79
2022-08-12T16:12:43.197Z,29.69
2022-08-12T16:15:13.635Z,29.58
2022-08-12T16:18:18.991Z,29.50
2022-08-12T16:20:34.019Z,29.50
2022-08-12T16:23:04.123Z,29.49
2022-08-12T16:26:00.185Z,29.39
2022-08-12T16:28:17.559Z,29.34
2022-08-12T16:30:44.480Z,29.28
2022-08-12T16:33:18.247Z,29.19
2022-08-12T16:35:47.956Z,29.14
2022-08-12T16:38:28.277Z,29.11
2022-08-12T16:40:55.424Z,29.09
2022-08-12T16:43:31.852Z,29.05
2022-08-12T16:46:07.837Z,29.04
2022-08-12T16:48:48.855Z,28.95
2022-08-12T16:51:16.888Z,28.90
2022-08-12T16:53:54.529Z,28.83
2022-08-12T16:56:28.832Z,28.76
2022-08-12T16:58:57.345Z,28.71
2022-08-12T17:01:27.309Z,28.67
2022-08-12T17:04:10.822Z,28.65
2022-08-12T17:06:44.344Z,28.68
2022-08-12T17:09:17.028Z,28.65
2022-08-12T17:11:44.706Z,28.58
2022-08-12T17:14:16.367Z,28.51
2022-08-12T17:16:43.378Z,28.49
2022-08-12T17:19:15.659Z,28.42
2022-08-12T17:22:01.289Z,28.35
2022-08-12T17:24:39.997Z,28.24
2022-08-12T17:27:16.027Z,28.22
2022-08-12T17:30:02.297Z,28.18
2022-08-12T17:32:35.835Z,28.10
2022-08-12T17:35:22.756Z,28.06
2022-08-12T17:38:11.795Z,27.99
2022-08-12T17:40:38.503Z,27.96
2022-08-12T17:43:54.832Z,27.91
2022-08-12T17:46:02.240Z,27.85
2022-08-12T17:48:34.822Z,27.81
2022-08-12T17:51:15.756Z,27.79
2022-08-12T17:54:11.444Z,27.76
2022-08-12T17:56:37.350Z,27.73
2022-08-12T17:59:04.292Z,27.65
2022-08-12T18:01:35.837Z,27.58
2022-08-12T18:04:21.189Z,27.53
2022-08-12T18:06:52.184Z,27.41
2022-08-12T18:09:21.093Z,27.34
2022-08-12T18:12:08.707Z,27.28
2022-08-12T18:15:26.183Z,27.18
2022-08-12T18:18:01.416Z,27.07
2022-08-12T18:20:36.386Z,26.95
2022-08-12T18:23:04.608Z,26.87
2022-08-12T18:26:14.139Z,26.81
2022-08-12T18:28:44.741Z,26.75
2022-08-12T18:31:18.222Z,26.67
2022-08-12T18:33:46.307Z,26.52
2022-08-12T18:36:14.236Z,26.43
2022-08-12T18:38:55.845Z,26.33
2022-08-12T18:41:34.209Z,26.23
2022-08-12T18:44:11.412Z,26.12
2022-08-12T18:46:56.024Z,26.01
2022-08-12T18:49:39.672Z,25.91
2022-08-12T18:52:08.698Z,25.82
2022-08-12T18:54:54.105Z,25.70
2022-08-12T18:58:07.076Z,25.61
2022-08-12T19:00:22.308Z,25.50
2022-08-12T19:02:58.093Z,25.41
2022-08-12T19:05:54.381Z,25.31
2022-08-12T19:08:27.872Z,25.22
2022-08-12T19:10:54.822Z,25.14
2022-08-12T19:13:39.992Z,25.07
2022-08-12T19:16:10.732Z,24.97
2022-08-12T19:18:45.002Z,24.90
2022-08-12T19:21:16.711Z,24.83
2022-08-12T19:24:11.959Z,24.74
2022-08-12T19:26:42.406Z,24.65
2022-08-12T19:29:39.632Z,24.59
2022-08-12T19:32:13.972Z,24.53
2022-08-12T19:38:03.432Z,24.37
2022-08-12T19:40:32.442Z,24.29
